createdAt,value
2023-02-12T00:02:09.613Z,10.32
2023-02-12T00:07:11.431Z,10.95
2023-02-12T00:12:13.633Z,10.60
2023-02-12T00:17:15.634Z,11.52
2023-02-12T00:22:17.671Z,11.15
2023-02-12T00:27:19.731Z,12.20
2023-02-12T00:32:24.770Z,12.23
2023-02-12T00:37:26.788Z,12.02
2023-02-12T00:42:28.791Z,10.02
2023-02-12T00:47:31.152Z,11.32
2023-02-12T00:52:33.324Z,10.77
2023-02-12T00:57:35.476Z,10.85
2023-02-12T01:02:37.641Z,11.18
2023-02-12T01:07:41.888Z,11.32
2023-02-12T01:12:43.741Z,11.15
2023-02-12T01:17:46.303Z,10.18
2023-02-12T01:22:48.320Z,11.85
2023-02-12T01:27:54.120Z,9.43
2023-02-12T01:33:46.118Z,10.88
2023-02-12T01:38:48.261Z,11.25
2023-02-12T01:44:06.530Z,11.25
2023-02-12T01:49:42.844Z,10.45
2023-02-12T01:54:44.763Z,11.48
2023-02-12T01:59:50.670Z,11.35
2023-02-12T02:04:59.882Z,11.05
2023-02-12T02:10:04.021Z,10.95
2023-02-12T02:15:07.186Z,10.52
2023-02-12T02:20:48.298Z,12.02
2023-02-12T02:26:09.165Z,11.57
2023-02-12T02:31:40.045Z,11.35
2023-02-12T02:37:06.267Z,12.35
2023-02-12T02:42:40.518Z,11.15
2023-02-12T02:47:58.430Z,12.07
2023-02-12T02:53:06.600Z,10.63
2023-02-12T02:58:42.871Z,10.23
2023-02-12T03:03:52.353Z,10.90
2023-02-12T03:09:03.706Z,10.50
2023-02-12T03:14:18.300Z,11.43
2023-02-12T03:19:36.626Z,10.35
2023-02-12T03:24:54.084Z,9.18
2023-02-12T03:29:58.670Z,9.90
2023-02-12T03:35:22.803Z,8.25
2023-02-12T03:40:38.433Z,8.52
2023-02-12T03:46:01.328Z,9.88
2023-02-12T03:51:17.735Z,9.88
2023-02-12T03:56:26.271Z,10.52
2023-02-12T04:01:29.204Z,9.55
2023-02-12T04:06:31.544Z,10.40
2023-02-12T04:11:36.416Z,10.63
2023-02-12T04:16:48.330Z,9.60
2023-02-12T04:22:09.924Z,10.40
2023-02-12T04:27:26.521Z,10.43
2023-02-12T04:32:39.777Z,9.93
2023-02-12T04:38:19.865Z,8.23
2023-02-12T04:43:36.967Z,7.25
2023-02-12T04:48:59.354Z,11.17
2023-02-12T04:54:01.210Z,9.10
2023-02-12T04:59:03.317Z,8.88
2023-02-12T05:04:11.549Z,8.85
2023-02-12T05:09:19.027Z,10.30
2023-02-12T05:14:20.920Z,9.52
2023-02-12T05:19:22.719Z,9.00
2023-02-12T05:24:24.650Z,9.50
2023-02-12T05:29:26.596Z,9.32
2023-02-12T05:34:28.464Z,10.30
2023-02-12T05:39:30.376Z,9.52
2023-02-12T05:44:32.251Z,9.15
2023-02-12T05:49:34.675Z,9.13
2023-02-12T05:54:36.672Z,9.18
2023-02-12T05:59:39.507Z,10.85
2023-02-12T06:04:41.678Z,8.57
2023-02-12T06:09:43.510Z,9.55
2023-02-12T06:14:45.337Z,9.68
2023-02-12T06:19:56.077Z,8.68
2023-02-12T06:24:58.087Z,9.07
2023-02-12T06:30:00.134Z,8.77
2023-02-12T06:35:02.000Z,9.13
2023-02-12T06:40:07.293Z,8.30
2023-02-12T06:45:09.353Z,9.77
2023-02-12T06:50:11.689Z,9.85
2023-02-12T06:55:13.773Z,10.07
2023-02-12T07:00:16.144Z,10.52
2023-02-12T07:05:43.416Z,10.45
2023-02-12T07:10:50.141Z,10.10
2023-02-12T07:15:51.981Z,11.30
2023-02-12T07:21:19.725Z,10.55
2023-02-12T07:26:22.393Z,11.67
2023-02-12T07:31:24.834Z,11.52
2023-02-12T07:36:30.378Z,10.40
2023-02-12T07:41:35.582Z,11.52
2023-02-12T07:46:42.067Z,9.93
2023-02-12T07:51:43.952Z,10.15
2023-02-12T07:56:47.483Z,11.27
2023-02-12T08:01:51.566Z,9.38
2023-02-12T08:06:55.971Z,10.30
2023-02-12T08:11:59.077Z,9.23
2023-02-12T08:17:08.480Z,10.38
2023-02-12T08:22:10.240Z,8.60
2023-02-12T08:27:12.105Z,8.82
2023-02-12T08:32:14.786Z,9.50
2023-02-12T08:37:16.942Z,18.20
2023-02-12T08:42:44.806Z,9.32
2023-02-12T08:47:48.337Z,8.57
2023-02-12T08:52:50.375Z,8.80
2023-02-12T08:58:03.060Z,8.70
2023-02-12T09:03:06.689Z,8.02
2023-02-12T09:08:08.796Z,9.23
2023-02-12T09:13:13.341Z,9.38
2023-02-12T09:18:15.913Z,8.00
2023-02-12T09:23:17.847Z,8.35
2023-02-12T09:28:19.734Z,7.78
2023-02-12T09:33:23.077Z,7.35
2023-02-12T09:38:24.977Z,6.78
2023-02-12T09:43:53.173Z,5.68
2023-02-12T09:49:09.841Z,5.82
2023-02-12T09:54:17.649Z,6.32
2023-02-12T09:59:35.227Z,5.72
2023-02-12T10:04:37.214Z,4.97
2023-02-12T10:09:57.071Z,5.55
2023-02-12T10:15:27.615Z,4.93
2023-02-12T10:20:33.526Z,4.80
2023-02-12T10:25:45.113Z,5.03
2023-02-12T10:30:56.878Z,4.45
2023-02-12T10:36:23.361Z,5.30
2023-02-12T10:41:28.951Z,3.85
2023-02-12T10:46:32.247Z,4.90
2023-02-12T10:51:48.957Z,3.85
2023-02-12T10:56:51.598Z,3.88
2023-02-12T11:01:53.517Z,3.83
2023-02-12T11:07:08.984Z,4.25
2023-02-12T11:12:32.138Z,4.88
2023-02-12T11:17:36.110Z,4.80
2023-02-12T11:22:38.175Z,4.22
2023-02-12T11:27:39.968Z,5.38
2023-02-12T11:32:41.962Z,5.35
2023-02-12T11:37:46.422Z,4.47
2023-02-12T11:43:09.690Z,3.58
2023-02-12T11:48:22.826Z,4.40
2023-02-12T11:53:37.645Z,3.67
2023-02-12T11:58:40.369Z,3.58
2023-02-12T12:03:48.326Z,3.13
2023-02-12T12:14:08.271Z,2.80
2023-02-12T12:19:38.716Z,2.83
2023-02-12T12:25:06.931Z,3.80
2023-02-12T12:30:22.323Z,3.22
2023-02-12T12:35:37.695Z,2.75
2023-02-12T12:41:03.934Z,3.40
2023-02-12T12:46:24.459Z,3.90
2023-02-12T12:51:32.659Z,2.75
2023-02-12T12:56:46.682Z,2.88
2023-02-12T13:02:19.386Z,4.03
2023-02-12T13:08:18.607Z,3.03
2023-02-12T13:13:26.626Z,2.85
2023-02-12T13:18:33.283Z,2.53
2023-02-12T13:23:57.577Z,3.15
2023-02-12T13:29:13.024Z,3.10
2023-02-12T13:34:17.847Z,2.90
2023-02-12T13:39:34.114Z,3.28
2023-02-12T13:45:06.702Z,3.13
2023-02-12T13:50:46.112Z,2.70
2023-02-12T13:56:07.814Z,2.78
2023-02-12T14:01:36.506Z,3.17
2023-02-12T14:06:38.596Z,3.35
2023-02-12T14:11:53.402Z,3.45
2023-02-12T14:16:55.394Z,3.97
2023-02-12T14:21:57.185Z,4.25
2023-02-12T14:26:59.299Z,3.55
2023-02-12T14:32:01.302Z,3.38
2023-02-12T14:37:36.596Z,3.38
2023-02-12T14:42:42.418Z,3.67
2023-02-12T14:47:51.185Z,3.88
2023-02-12T14:53:05.328Z,4.32
2023-02-12T14:58:19.665Z,3.85
2023-02-12T15:03:28.021Z,3.03
2023-02-12T15:08:45.403Z,3.45
2023-02-12T15:13:55.216Z,3.70
2023-02-12T15:19:22.349Z,3.67
2023-02-12T15:24:26.657Z,3.50
2023-02-12T15:29:42.058Z,4.20
2023-02-12T15:34:48.061Z,3.95
2023-02-12T15:39:53.726Z,4.65
2023-02-12T15:45:10.423Z,4.43
2023-02-12T15:50:14.773Z,4.43
2023-02-12T15:55:23.237Z,4.35
2023-02-12T16:00:41.589Z,3.85
2023-02-12T16:05:43.809Z,4.50
2023-02-12T16:10:51.739Z,4.78
2023-02-12T16:21:19.503Z,4.05
2023-02-12T16:31:27.253Z,3.30
2023-02-12T16:36:32.129Z,3.63
2023-02-12T16:41:52.618Z,8.50
2023-02-12T16:46:59.683Z,4.05
2023-02-12T16:52:39.127Z,3.90
2023-02-12T16:57:41.142Z,3.95
2023-02-12T17:02:43.624Z,4.35
2023-02-12T17:07:47.013Z,4.07
2023-02-12T17:12:51.624Z,3.92
2023-02-12T17:23:11.726Z,3.42
2023-02-12T17:28:13.598Z,4.05
2023-02-12T17:33:16.776Z,3.95
2023-02-12T17:38:19.141Z,3.92
2023-02-12T17:43:21.375Z,4.18
2023-02-12T17:48:25.195Z,4.00
2023-02-12T17:53:32.760Z,5.82
2023-02-12T17:58:34.541Z,5.47
2023-02-12T18:03:36.857Z,4.35
2023-02-12T18:08:39.031Z,4.43
2023-02-12T18:13:42.655Z,4.35
2023-02-12T18:18:44.722Z,4.50
2023-02-12T18:23:47.061Z,4.78
2023-02-12T18:28:49.533Z,5.72
2023-02-12T18:33:51.893Z,5.82
2023-02-12T18:38:53.770Z,5.40
2023-02-12T18:43:58.154Z,6.38
2023-02-12T18:49:00.805Z,5.47
2023-02-12T18:54:07.429Z,5.30
2023-02-12T18:59:13.031Z,4.55
2023-02-12T19:04:16.290Z,5.63
2023-02-12T19:09:21.589Z,5.05
2023-02-12T19:14:24.699Z,5.78
2023-02-12T19:19:27.675Z,4.65
2023-02-12T19:24:44.399Z,4.75
2023-02-12T19:29:47.621Z,4.85
2023-02-12T19:34:49.352Z,4.55
2023-02-12T19:39:51.251Z,4.35
2023-02-12T19:44:53.337Z,5.10
2023-02-12T19:49:55.814Z,4.72
2023-02-12T19:54:58.722Z,4.55
2023-02-12T20:00:00.506Z,4.60
2023-02-12T20:05:02.451Z,4.38
2023-02-12T20:10:05.002Z,4.93
2023-02-12T20:15:07.471Z,4.78
2023-02-12T20:20:10.428Z,5.55
2023-02-12T20:25:12.458Z,5.03
2023-02-12T20:30:24.181Z,6.88
2023-02-12T20:35:26.044Z,6.20
2023-02-12T20:40:28.081Z,7.20
2023-02-12T20:45:29.915Z,4.68
2023-02-12T20:50:31.735Z,4.65
2023-02-12T20:55:33.974Z,5.22
2023-02-12T21:00:36.016Z,6.53
2023-02-12T21:05:38.031Z,5.80
2023-02-12T21:10:39.800Z,6.38
2023-02-12T21:15:41.950Z,5.43
2023-02-12T21:20:43.777Z,4.80
2023-02-12T21:25:45.785Z,4.10
2023-02-12T21:30:47.586Z,4.10
2023-02-12T21:35:49.394Z,4.65
2023-02-12T21:40:51.373Z,4.80
2023-02-12T21:45:53.209Z,5.45
2023-02-12T21:50:57.296Z,3.70
2023-02-12T21:56:05.649Z,3.90
2023-02-12T22:01:09.864Z,3.70
2023-02-12T22:06:14.034Z,4.07
2023-02-12T22:11:16.562Z,4.05
2023-02-12T22:16:24.611Z,4.68
2023-02-12T22:21:29.937Z,3.88
2023-02-12T22:26:32.567Z,4.10
2023-02-12T22:31:36.690Z,4.15
2023-02-12T22:36:39.642Z,3.88
2023-02-12T22:41:44.501Z,4.13
2023-02-12T22:46:46.298Z,3.85
2023-02-12T22:51:48.335Z,3.75
2023-02-12T22:56:52.023Z,4.18
2023-02-12T23:01:53.821Z,4.75
2023-02-12T23:07:04.427Z,4.32
2023-02-12T23:12:07.999Z,4.70
2023-02-12T23:17:09.831Z,5.30
2023-02-12T23:22:11.715Z,4.22
2023-02-12T23:27:13.740Z,5.07
2023-02-12T23:32:15.545Z,4.55
2023-02-12T23:37:17.480Z,4.70
2023-02-12T23:42:19.299Z,5.22
2023-02-12T23:47:21.169Z,4.70
2023-02-12T23:52:22.967Z,5.35
2023-02-12T23:57:25.083Z,5.43
